Time;durP1;ratioP1;P1;durP2;ratioP2;P2;SDS_P1;SDS_P2;PMS_P1;PMS_P2;Temp;Humidity;BMP_temperature;BMP_pressure;BME280_temperature;BME280_humidity;BME280_pressure;Samples;Min_cycle;Max_cycle;Signal;HPM_P1;HPM_P2
2022/10/07 00:04:29;;;;;;;22.00;4.57;;;;;;;;;;4346206;33;20078;-75
2022/10/07 00:06:54;;;;;;;14.70;4.18;;;;;;;;;;4345956;33;20027;-75
2022/10/07 00:09:20;;;;;;;;;;;;;;;;;;4344584;33;20054;-75
2022/10/07 00:11:47;;;;;;;17.37;4.30;;;;;;;;;;4344520;33;19982;-75
2022/10/07 00:14:13;;;;;;;15.02;4.90;;;;;;;;;;4345991;33;20043;-75
2022/10/07 00:16:38;;;;;;;;;;;;;;;;;;4347242;33;20459;-75
2022/10/07 00:19:06;;;;;;;21.27;4.40;;;;;;;;;;4345331;33;19951;-75
2022/10/07 00:21:32;;;;;;;17.67;4.20;;;;;;;;;;4345433;33;20075;-75
2022/10/07 00:23:58;;;;;;;15.55;4.68;;;;;;;;;;4345379;33;20031;-75
2022/10/07 00:26:25;;;;;;;;;;;;;;;;;;4346775;33;20058;-76
2022/10/07 00:28:50;;;;;;;;;;;;;;;;;;4344496;33;19941;-75
2022/10/07 00:31:20;;;;;;;16.35;4.50;;;;;;;;;;4346618;33;19943;-75
2022/10/07 00:36:34;;;;;;;21.67;5.55;;;;;;;;;;4346072;33;20061;-75
2022/10/07 00:39:01;;;;;;;20.08;5.90;;;;;;;;;;4345433;33;20035;-74
2022/10/07 00:41:28;;;;;;;12.90;4.47;;;;;;;;;;4345801;33;20102;-75
2022/10/07 00:43:54;;;;;;;21.37;4.82;;;;;;;;;;4345286;33;20036;-75
2022/10/07 00:46:29;;;;;;;;;;;;;;;;;;;;;
2022/10/07 00:49:03;;;;;;;18.20;4.47;;;;;;;;;;4345620;33;19939;-75
2022/10/07 00:51:30;;;;;;;18.02;5.03;;;;;;;;;;4346201;33;20387;-75
2022/10/07 00:53:55;;;;;;;32.28;5.53;;;;;;;;;;4345214;33;20024;-75
2022/10/07 00:56:21;;;;;;;;;;;;;;;;;;4346079;33;20093;-75
2022/10/07 00:59:02;;;;;;;20.27;4.70;;;;;;;;;;4345698;33;19958;-75
2022/10/07 01:01:29;;;;;;;18.15;5.10;;;;;;;;;;4346524;33;20032;-75
2022/10/07 01:04:17;;;;;;;26.48;5.70;;;;;;;;;;4345129;33;20027;-75
2022/10/07 01:06:44;;;;;;;20.20;4.62;;;;;;;;;;4345637;33;20062;-75
2022/10/07 01:09:12;;;;;;;19.52;5.47;;;;;;;;;;4345061;33;20061;-75
2022/10/07 01:11:47;;;;;;;19.15;5.75;;;;;;;;;;4345898;33;20082;-75
2022/10/07 01:14:26;;;;;;;19.87;5.00;;;;;;;;;;4346298;33;20051;-75
2022/10/07 01:16:59;;;;;;;17.58;4.87;;;;;;;;;;4335172;33;20348;-75
2022/10/07 01:19:35;;;;;;;22.55;5.12;;;;;;;;;;4348114;33;20040;-76
2022/10/07 01:22:18;;;;;;;23.27;5.37;;;;;;;;;;4348242;33;20094;-75
2022/10/07 01:24:49;;;;;;;19.27;5.20;;;;;;;;;;4347953;33;20016;-75
2022/10/07 01:27:20;;;;;;;19.83;5.18;;;;;;;;;;4334720;33;20050;-76
2022/10/07 01:29:54;;;;;;;20.37;6.90;;;;;;;;;;4347991;33;20099;-75
2022/10/07 01:32:43;;;;;;;20.00;5.78;;;;;;;;;;4347701;33;20373;-75
2022/10/07 01:35:13;;;;;;;24.70;5.30;;;;;;;;;;4348241;33;20020;-75
2022/10/07 01:37:43;;;;;;;25.83;6.00;;;;;;;;;;4348348;33;20027;-75
2022/10/07 01:40:22;;;;;;;18.67;5.72;;;;;;;;;;4347442;33;20027;-75
2022/10/07 01:42:48;;;;;;;21.08;5.35;;;;;;;;;;4348472;33;20058;-75
2022/10/07 01:45:15;;;;;;;;;;;;;;;;;;4347557;33;20382;-75
2022/10/07 01:47:41;;;;;;;27.98;6.75;;;;;;;;;;4347754;33;20285;-76
2022/10/07 01:50:06;;;;;;;;;;;;;;;;;;4334519;33;20023;-75
2022/10/07 01:52:49;;;;;;;24.23;5.30;;;;;;;;;;4347390;33;19975;-76
2022/10/07 01:55:21;;;;;;;29.30;6.55;;;;;;;;;;4347806;33;20050;-76
2022/10/07 02:01:47;;;;;;;;;;;;;;;;;;;;;
2022/10/07 02:13:47;;;;;;;31.40;6.10;;;;;;;;;;4286987;33;20033;-75
2022/10/07 02:16:37;;;;;;;26.70;7.05;;;;;;;;;;4286717;33;20063;-75
2022/10/07 02:19:06;;;;;;;23.70;5.75;;;;;;;;;;4287161;33;20104;-75
2022/10/07 02:21:33;;;;;;;26.23;5.95;;;;;;;;;;4325563;33;20046;-75
2022/10/07 02:23:59;;;;;;;24.00;5.70;;;;;;;;;;4347416;33;20027;-75
2022/10/07 02:26:24;;;;;;;;;;;;;;;;;;4347301;33;20027;-75
2022/10/07 02:28:51;;;;;;;29.50;7.62;;;;;;;;;;4333462;33;19985;-75
2022/10/07 02:31:18;;;;;;;31.70;7.18;;;;;;;;;;4347152;33;20058;-75
2022/10/07 02:33:46;;;;;;;27.33;7.07;;;;;;;;;;4347806;33;20032;-75
2022/10/07 02:36:17;;;;;;;29.95;7.15;;;;;;;;;;4346776;33;20031;-75
2022/10/07 02:38:42;;;;;;;27.73;7.43;;;;;;;;;;4347517;33;20071;-75
2022/10/07 02:41:08;;;;;;;;;;;;;;;;;;4347318;33;20362;-75
2022/10/07 02:43:36;;;;;;;26.52;7.87;;;;;;;;;;4333492;33;19949;-75
2022/10/07 02:46:06;;;;;;;29.37;7.87;;;;;;;;;;4346785;33;20109;-75
2022/10/07 02:48:36;;;;;;;18.55;6.15;;;;;;;;;;4347225;33;20105;-76
2022/10/07 02:51:03;;;;;;;22.77;7.00;;;;;;;;;;4333548;33;20023;-75
2022/10/07 02:53:31;;;;;;;23.60;7.30;;;;;;;;;;4347911;33;20040;-75
2022/10/07 02:55:58;;;;;;;31.42;7.55;;;;;;;;;;4347088;33;20389;-75
2022/10/07 02:58:25;;;;;;;20.05;6.80;;;;;;;;;;4348142;33;20490;-75
2022/10/07 03:00:51;;;;;;;31.15;8.80;;;;;;;;;;4346354;33;20390;-75
2022/10/07 03:03:17;;;;;;;30.52;7.28;;;;;;;;;;4346665;33;20062;-76
2022/10/07 03:05:42;;;;;;;;;;;;;;;;;;4347175;33;20031;-75
2022/10/07 03:08:08;;;;;;;31.17;7.93;;;;;;;;;;4346670;33;20349;-75
2022/10/07 03:10:36;;;;;;;28.50;6.90;;;;;;;;;;4333662;33;20050;-75
2022/10/07 03:13:05;;;;;;;35.60;7.62;;;;;;;;;;4346274;33;20127;-75
2022/10/07 03:15:34;;;;;;;28.42;7.93;;;;;;;;;;4346052;33;20439;-75
2022/10/07 03:17:59;;;;;;;24.15;7.82;;;;;;;;;;4346023;33;20093;-76
2022/10/07 03:20:24;;;;;;;;;;;;;;;;;;4347110;33;20038;-75
2022/10/07 03:22:50;;;;;;;22.02;7.47;;;;;;;;;;4346763;33;19939;-75
2022/10/07 03:25:15;;;;;;;;;;;;;;;;;;4347114;33;20588;-75
2022/10/07 03:27:41;;;;;;;23.80;7.25;;;;;;;;;;4346277;33;20316;-75
2022/10/07 03:30:07;;;;;;;33.30;7.68;;;;;;;;;;4346792;33;20031;-75
2022/10/07 03:32:33;;;;;;;25.10;7.12;;;;;;;;;;4344718;33;20342;-75
2022/10/07 03:34:58;;;;;;;;;;;;;;;;;;4346965;33;20050;-75
2022/10/07 03:37:23;;;;;;;29.85;7.30;;;;;;;;;;4346533;33;19969;-75
2022/10/07 03:39:49;;;;;;;24.70;7.60;;;;;;;;;;4345729;33;20058;-75
2022/10/07 03:42:14;;;;;;;;;;;;;;;;;;4346063;33;20078;-75
2022/10/07 03:44:39;;;;;;;20.75;6.95;;;;;;;;;;4347291;33;20312;-75
2022/10/07 03:47:07;;;;;;;;;;;;;;;;;;4346180;33;20129;-75
2022/10/07 03:49:35;;;;;;;;;;;;;;;;;;4332665;33;20044;-75
2022/10/07 03:52:02;;;;;;;32.35;7.65;;;;;;;;;;4346537;33;19972;-75
2022/10/07 03:54:27;;;;;;;28.20;7.00;;;;;;;;;;4345676;33;20047;-75
2022/10/07 03:56:52;;;;;;;;;;;;;;;;;;4346712;33;20047;-75
2022/10/07 03:59:18;;;;;;;20.33;6.80;;;;;;;;;;4346706;33;19994;-75
2022/10/07 04:01:43;;;;;;;;;;;;;;;;;;4345857;33;20124;-75
2022/10/07 04:04:08;;;;;;;28.10;6.50;;;;;;;;;;4346068;33;19954;-75
2022/10/07 04:06:33;;;;;;;;;;;;;;;;;;4346197;33;20573;-75
2022/10/07 04:08:59;;;;;;;24.40;6.57;;;;;;;;;;4345515;33;19949;-76
2022/10/07 04:11:24;;;;;;;;;;;;;;;;;;4346610;33;20414;-75
2022/10/07 04:13:50;;;;;;;24.42;6.75;;;;;;;;;;4345510;33;20314;-76
2022/10/07 04:16:15;;;;;;;;;;;;;;;;;;4345781;33;20042;-77
2022/10/07 04:18:40;;;;;;;33.08;6.43;;;;;;;;;;4345412;33;20293;-76
2022/10/07 04:21:06;;;;;;;30.98;7.85;;;;;;;;;;4345785;33;20027;-77
2022/10/07 04:23:31;;;;;;;;;;;;;;;;;;4332689;33;20476;-76
2022/10/07 04:25:57;;;;;;;24.92;6.70;;;;;;;;;;4345848;33;19935;-76
2022/10/07 04:28:24;;;;;;;17.27;5.97;;;;;;;;;;4345679;33;20178;-76
2022/10/07 04:30:50;;;;;;;23.83;6.50;;;;;;;;;;4345325;33;20027;-76
2022/10/07 04:33:15;;;;;;;;;;;;;;;;;;4345818;33;20050;-76
2022/10/07 04:35:41;;;;;;;26.65;6.43;;;;;;;;;;4345899;33;19939;-76
2022/10/07 04:38:08;;;;;;;34.20;6.72;;;;;;;;;;4345631;33;20028;-76
2022/10/07 04:40:37;;;;;;;26.77;5.55;;;;;;;;;;4345077;33;20031;-76
2022/10/07 04:45:47;;;;;;;26.87;6.57;;;;;;;;;;4345843;33;20104;-77
2022/10/07 04:48:16;;;;;;;27.50;5.55;;;;;;;;;;4346401;33;20059;-76
2022/10/07 04:50:44;;;;;;;21.73;5.12;;;;;;;;;;4348363;33;20054;-77
2022/10/07 04:56:28;;;;;;;21.58;5.78;;;;;;;;;;4348745;33;20484;-76
2022/10/07 04:59:08;;;;;;;18.98;4.15;;;;;;;;;;4348113;33;20031;-77
2022/10/07 05:01:34;;;;;;;25.12;5.12;;;;;;;;;;4348389;33;20024;-76
2022/10/07 05:04:12;;;;;;;;;;;;;;;;;;;;;
2022/10/07 05:06:38;;;;;;;25.23;5.55;;;;;;;;;;4348011;33;20285;-76
2022/10/07 05:09:03;;;;;;;;;;;;;;;;;;4348249;33;20024;-76
2022/10/07 05:11:28;;;;;;;20.10;5.82;;;;;;;;;;4347949;33;19938;-76
2022/10/07 05:13:54;;;;;;;;;;;;;;;;;;4348415;33;20023;-76
2022/10/07 05:16:19;;;;;;;27.27;4.65;;;;;;;;;;4334624;33;19945;-75
2022/10/07 05:18:44;;;;;;;;;;;;;;;;;;4348429;33;20027;-76
2022/10/07 05:21:10;;;;;;;26.80;4.80;;;;;;;;;;4347896;33;19948;-76
2022/10/07 05:23:38;;;;;;;18.80;5.78;;;;;;;;;;4347979;33;20059;-76
2022/10/07 05:26:07;;;;;;;16.33;4.93;;;;;;;;;;4347624;33;20450;-76
2022/10/07 05:28:33;;;;;;;22.10;4.70;;;;;;;;;;4347862;33;20465;-77
2022/10/07 05:30:58;;;;;;;;;;;;;;;;;;4348571;33;20107;-76
2022/10/07 05:33:26;;;;;;;27.48;6.97;;;;;;;;;;4348681;33;19949;-76
2022/10/07 05:35:51;;;;;;;20.90;5.60;;;;;;;;;;4334084;33;20121;-76
2022/10/07 05:38:16;;;;;;;;;;;;;;;;;;4347790;33;20032;-75
2022/10/07 05:40:44;;;;;;;19.58;5.28;;;;;;;;;;4347352;33;19991;-75
2022/10/07 05:43:12;;;;;;;25.17;5.82;;;;;;;;;;4347817;33;20140;-75
2022/10/07 05:45:45;;;;;;;22.45;6.35;;;;;;;;;;4347610;33;20047;-75
2022/10/07 05:48:10;;;;;;;19.50;4.70;;;;;;;;;;4346961;33;20101;-76
2022/10/07 05:50:39;;;;;;;;;;;;;;;;;;4347461;33;20366;-75
2022/10/07 05:53:11;;;;;;;18.40;5.87;;;;;;;;;;4339317;33;19943;-76
2022/10/07 05:55:37;;;;;;;27.40;7.82;;;;;;;;;;4342954;33;20087;-75
2022/10/07 05:58:02;;;;;;;;;;;;;;;;;;4331847;33;20083;-75
2022/10/07 06:00:40;;;;;;;15.02;5.07;;;;;;;;;;4330603;33;19970;-75
2022/10/07 06:03:06;;;;;;;19.00;5.78;;;;;;;;;;4329811;33;20194;-75
2022/10/07 06:05:31;;;;;;;;;;;;;;;;;;4333013;33;20059;-75
2022/10/07 06:07:57;;;;;;;24.35;5.37;;;;;;;;;;4340353;33;19957;-75
2022/10/07 06:13:09;;;;;;;24.87;6.07;;;;;;;;;;4316518;33;20086;-75
2022/10/07 06:15:58;;;;;;;22.15;5.45;;;;;;;;;;4319206;33;20078;-74
2022/10/07 06:18:24;;;;;;;27.10;7.75;;;;;;;;;;4330757;33;20091;-75
2022/10/07 06:20:49;;;;;;;;;;;;;;;;;;4332714;33;20044;-75
2022/10/07 06:23:17;;;;;;;25.37;6.10;;;;;;;;;;4332692;33;19935;-76
2022/10/07 06:25:42;;;;;;;31.55;7.80;;;;;;;;;;4332850;33;20063;-75
2022/10/07 06:28:07;;;;;;;;;;;;;;;;;;4332807;33;20086;-75
2022/10/07 06:30:33;;;;;;;27.92;6.40;;;;;;;;;;4332132;33;19958;-75
2022/10/07 06:32:58;;;;;;;;;;;;;;;;;;4332393;33;20032;-76
2022/10/07 06:35:29;;;;;;;28.30;5.47;;;;;;;;;;4332311;33;20282;-75
2022/10/07 06:37:55;;;;;;;27.20;7.60;;;;;;;;;;4331985;33;20129;-75
2022/10/07 06:40:20;;;;;;;;;;;;;;;;;;4332014;33;20111;-75
2022/10/07 06:42:50;;;;;;;28.02;6.25;;;;;;;;;;4332105;33;19994;-76
2022/10/07 06:45:16;;;;;;;24.90;6.20;;;;;;;;;;4339404;33;20093;-76
2022/10/07 06:47:44;;;;;;;;;;;;;;;;;;4331825;33;20032;-75
2022/10/07 06:50:12;;;;;;;20.67;6.53;;;;;;;;;;4331568;33;20360;-76
2022/10/07 06:52:40;;;;;;;21.87;5.47;;;;;;;;;;4332214;33;20028;-76
2022/10/07 06:55:06;;;;;;;28.80;6.10;;;;;;;;;;4331410;33;20031;-76
2022/10/07 06:57:32;;;;;;;21.10;5.97;;;;;;;;;;4331558;33;20052;-75
2022/10/07 06:59:59;;;;;;;;;;;;;;;;;;4332910;33;20035;-75
2022/10/07 07:02:25;;;;;;;20.73;5.65;;;;;;;;;;4330052;33;19942;-76
2022/10/07 07:04:50;;;;;;;;;;;;;;;;;;4331982;33;20023;-75
2022/10/07 07:07:15;;;;;;;25.08;5.53;;;;;;;;;;4330749;33;20394;-76
2022/10/07 07:09:41;;;;;;;;;;;;;;;;;;4332021;33;20320;-75
2022/10/07 07:12:06;;;;;;;20.92;5.70;;;;;;;;;;4331070;33;19943;-75
2022/10/07 07:14:33;;;;;;;;;;;;;;;;;;4339078;33;20158;-76
2022/10/07 07:16:59;;;;;;;16.65;5.35;;;;;;;;;;4345937;33;19989;-74
2022/10/07 07:19:24;;;;;;;18.95;5.00;;;;;;;;;;4346143;33;20074;-76
2022/10/07 07:21:49;;;;;;;18.25;4.85;;;;;;;;;;4332157;33;20031;-77
2022/10/07 07:24:14;;;;;;;22.87;5.57;;;;;;;;;;4331233;33;20024;-76
2022/10/07 07:26:40;;;;;;;;;;;;;;;;;;4318777;33;20036;-75
2022/10/07 07:29:06;;;;;;;25.75;6.37;;;;;;;;;;4316737;33;19943;-76
2022/10/07 07:31:32;;;;;;;23.92;5.30;;;;;;;;;;4316349;33;20024;-76
2022/10/07 07:34:00;;;;;;;22.08;4.50;;;;;;;;;;4302960;33;20036;-76
2022/10/07 07:36:28;;;;;;;24.00;5.95;;;;;;;;;;4313702;33;20841;-77
2022/10/07 07:39:05;;;;;;;26.20;6.62;;;;;;;;;;4317603;33;20031;-75
2022/10/07 07:41:31;;;;;;;17.98;4.55;;;;;;;;;;4331981;33;20032;-76
2022/10/07 07:43:58;;;;;;;22.60;4.62;;;;;;;;;;4317557;33;20032;-75
2022/10/07 07:46:43;;;;;;;19.55;5.37;;;;;;;;;;4323151;33;20036;-75
2022/10/07 07:49:14;;;;;;;21.25;5.10;;;;;;;;;;4307534;33;20397;-76
2022/10/07 07:51:43;;;;;;;22.30;4.85;;;;;;;;;;4333015;33;20027;-76
2022/10/07 07:54:09;;;;;;;15.95;4.00;;;;;;;;;;4344643;33;20058;-75
2022/10/07 07:56:35;;;;;;;17.15;4.90;;;;;;;;;;4344972;33;20143;-73
2022/10/07 08:01:49;;;;;;;17.60;4.25;;;;;;;;;;4339232;33;19939;-76
2022/10/07 08:04:17;;;;;;;18.48;3.97;;;;;;;;;;4345897;33;20016;-76
2022/10/07 08:06:45;;;;;;;22.45;4.87;;;;;;;;;;4345220;33;20083;-76
2022/10/07 08:09:34;;;;;;;19.87;4.20;;;;;;;;;;4345927;33;20090;-76
2022/10/07 08:11:56;;;;;;;17.00;5.07;;;;;;;;;;4344418;33;20045;-75
2022/10/07 08:14:42;;;;;;;16.05;4.03;;;;;;;;;;4345685;33;20058;-76
2022/10/07 08:17:08;;;;;;;26.40;4.20;;;;;;;;;;4346592;33;20358;-75
2022/10/07 08:19:33;;;;;;;;;;;;;;;;;;4346130;33;20039;-75
2022/10/07 08:21:58;;;;;;;16.25;4.72;;;;;;;;;;4344926;33;19985;-75
2022/10/07 08:24:24;;;;;;;16.55;4.35;;;;;;;;;;4344097;33;20373;-76
2022/10/07 08:26:49;;;;;;;;;;;;;;;;;;4331900;33;20035;-75
2022/10/07 08:29:36;;;;;;;14.45;4.45;;;;;;;;;;4344771;33;19946;-75
2022/10/07 08:32:01;;;;;;;21.48;5.15;;;;;;;;;;4344485;33;20120;-76
2022/10/07 08:34:27;;;;;;;23.10;4.50;;;;;;;;;;4331085;33;20480;-76
2022/10/07 08:36:54;;;;;;;20.02;4.95;;;;;;;;;;4345045;33;20135;-76
2022/10/07 08:39:23;;;;;;;19.23;4.80;;;;;;;;;;4345527;33;20031;-76
2022/10/07 08:41:58;;;;;;;29.17;5.65;;;;;;;;;;4344899;33;20401;-75
2022/10/07 08:44:31;;;;;;;20.58;4.78;;;;;;;;;;4345659;33;20353;-76
2022/10/07 08:47:15;;;;;;;30.10;5.22;;;;;;;;;;4345126;33;20055;-76
2022/10/07 08:50:04;;;;;;;22.30;4.68;;;;;;;;;;4345083;33;20382;-75
2022/10/07 08:52:31;;;;;;;26.70;4.95;;;;;;;;;;4345209;33;20031;-76
2022/10/07 08:54:58;;;;;;;20.65;4.65;;;;;;;;;;4344931;33;20035;-76
2022/10/07 08:57:38;;;;;;;21.05;4.28;;;;;;;;;;4344712;33;20063;-76
2022/10/07 09:00:07;;;;;;;17.12;4.62;;;;;;;;;;4343640;33;20054;-76
2022/10/07 09:02:51;;;;;;;22.17;4.75;;;;;;;;;;4343926;33;20145;-76
2022/10/07 09:05:28;;;;;;;19.92;4.28;;;;;;;;;;4343999;33;20032;-76
2022/10/07 09:08:03;;;;;;;22.10;4.82;;;;;;;;;;4344995;33;20028;-75
2022/10/07 09:10:35;;;;;;;17.27;4.40;;;;;;;;;;4345110;33;20012;-77
2022/10/07 09:13:13;;;;;;;23.30;4.62;;;;;;;;;;4344256;33;20410;-76
2022/10/07 09:15:56;;;;;;;15.85;4.12;;;;;;;;;;4345274;33;20062;-76
2022/10/07 09:18:41;;;;;;;17.12;4.30;;;;;;;;;;4345136;33;20099;-77
2022/10/07 09:21:17;;;;;;;18.40;4.90;;;;;;;;;;4343870;33;20027;-76
2022/10/07 09:23:44;;;;;;;23.75;4.85;;;;;;;;;;4345164;33;20168;-76
2022/10/07 09:26:13;;;;;;;22.27;6.18;;;;;;;;;;4345117;33;20035;-76
2022/10/07 09:28:41;;;;;;;22.67;5.93;;;;;;;;;;4344853;33;20046;-77
2022/10/07 09:31:11;;;;;;;21.55;4.62;;;;;;;;;;4344662;33;20036;-76
2022/10/07 09:33:39;;;;;;;21.92;4.87;;;;;;;;;;4344819;33;20086;-76
2022/10/07 09:36:09;;;;;;;22.50;4.93;;;;;;;;;;4346457;33;20110;-76
2022/10/07 09:38:39;;;;;;;26.37;5.47;;;;;;;;;;4347242;33;20031;-77
2022/10/07 09:41:21;;;;;;;21.35;5.32;;;;;;;;;;4347264;33;20103;-77
2022/10/07 09:43:52;;;;;;;24.80;5.72;;;;;;;;;;4348227;33;20093;-76
2022/10/07 09:46:36;;;;;;;15.30;5.15;;;;;;;;;;4348141;33;20069;-76
2022/10/07 09:49:04;;;;;;;13.82;3.67;;;;;;;;;;4347379;33;20028;-76
2022/10/07 09:51:31;;;;;;;20.42;5.15;;;;;;;;;;4347631;33;20036;-76
2022/10/07 09:54:16;;;;;;;15.43;3.95;;;;;;;;;;4346927;33;20028;-76
2022/10/07 09:56:43;;;;;;;13.15;4.22;;;;;;;;;;4347363;33;20031;-76
2022/10/07 09:59:25;;;;;;;20.55;4.78;;;;;;;;;;4347090;33;20032;-76
2022/10/07 10:01:51;;;;;;;14.32;4.35;;;;;;;;;;4333757;33;20049;-75
2022/10/07 10:04:23;;;;;;;14.73;4.35;;;;;;;;;;4347525;33;20066;-75
2022/10/07 10:06:50;;;;;;;18.33;5.07;;;;;;;;;;4347746;33;20031;-76
2022/10/07 10:09:31;;;;;;;24.40;4.40;;;;;;;;;;4347057;33;20028;-76
2022/10/07 10:16:00;;;;;;;12.23;3.47;;;;;;;;;;4301714;33;20032;-76
2022/10/07 10:18:52;;;;;;;18.80;5.00;;;;;;;;;;4244600;33;20160;-76
2022/10/07 10:28:07;;;;;;;19.58;5.05;;;;;;;;;;4296130;33;20051;-75
2022/10/07 10:30:39;;;;;;;23.20;3.95;;;;;;;;;;4301500;33;20630;-76
2022/10/07 10:33:35;;;;;;;24.55;4.07;;;;;;;;;;4301134;33;20079;-76
2022/10/07 10:36:39;;;;;;;;;;;;;;;;;;;;;
2022/10/07 10:39:30;;;;;;;11.95;3.30;;;;;;;;;;4298386;33;20099;-76
2022/10/07 10:42:31;;;;;;;25.40;4.35;;;;;;;;;;4316361;33;20060;-76
2022/10/07 10:45:01;;;;;;;17.87;4.28;;;;;;;;;;4344221;33;20027;-76
2022/10/07 10:47:45;;;;;;;14.75;3.72;;;;;;;;;;4332093;33;20384;-76
2022/10/07 10:50:29;;;;;;;16.87;4.20;;;;;;;;;;4345994;33;20357;-77
2022/10/07 10:53:03;;;;;;;22.42;4.37;;;;;;;;;;4345016;33;20410;-77
2022/10/07 10:55:47;;;;;;;24.65;4.93;;;;;;;;;;4347361;33;20067;-78
2022/10/07 10:58:32;;;;;;;16.10;3.83;;;;;;;;;;4345290;33;20137;-77
2022/10/07 11:01:06;;;;;;;20.70;4.90;;;;;;;;;;4345994;33;20027;-77
2022/10/07 11:03:50;;;;;;;12.55;3.45;;;;;;;;;;4345595;33;20370;-77
2022/10/07 11:06:50;;;;;;;17.40;3.97;;;;;;;;;;4345650;33;20073;-75
2022/10/07 11:09:17;;;;;;;15.15;3.80;;;;;;;;;;4340639;33;20085;-76
2022/10/07 11:12:27;;;;;;;23.10;4.32;;;;;;;;;;4345762;33;20091;-76
2022/10/07 11:15:04;;;;;;;19.77;4.45;;;;;;;;;;4304140;33;20467;-76
2022/10/07 11:17:36;;;;;;;18.83;4.22;;;;;;;;;;4304527;33;20066;-77
2022/10/07 11:20:20;;;;;;;18.70;4.12;;;;;;;;;;4331788;33;20097;-76
2022/10/07 11:22:49;;;;;;;10.98;4.00;;;;;;;;;;4344228;33;20065;-76
2022/10/07 11:25:35;;;;;;;15.77;4.55;;;;;;;;;;4331826;33;20020;-76
2022/10/07 11:28:06;;;;;;;21.30;5.22;;;;;;;;;;4345270;33;20031;-76
2022/10/07 11:34:23;;;;;;;14.50;3.58;;;;;;;;;;4296030;33;20089;-75
2022/10/07 11:37:24;;;;;;;16.05;4.03;;;;;;;;;;4299090;33;20052;-75
2022/10/07 11:39:52;;;;;;;20.48;4.68;;;;;;;;;;4248515;33;20065;-77
2022/10/07 11:42:25;;;;;;;17.45;3.83;;;;;;;;;;4285837;33;20066;-76
2022/10/07 11:45:03;;;;;;;;;;;;;;;;;;;;;
2022/10/07 11:51:35;;;;;;;;;;;;;;;;;;;;;
2022/10/07 11:53:54;;;;;;;16.40;3.70;;;;;;;;;;4228190;33;20038;-76
2022/10/07 11:56:26;;;;;;;17.10;3.03;;;;;;;;;;4291178;33;20067;-77
2022/10/07 11:58:59;;;;;;;13.88;3.37;;;;;;;;;;4344899;33;20031;-77
2022/10/07 12:01:34;;;;;;;10.70;3.03;;;;;;;;;;4330175;33;20099;-77
2022/10/07 12:04:34;;;;;;;12.35;3.65;;;;;;;;;;4341700;33;20052;-77
2022/10/07 12:07:27;;;;;;;12.15;3.70;;;;;;;;;;4329316;33;20035;-77
2022/10/07 12:09:59;;;;;;;17.40;3.35;;;;;;;;;;4345546;33;20063;-77
2022/10/07 12:12:55;;;;;;;17.02;3.58;;;;;;;;;;4341335;33;20062;-77
2022/10/07 12:15:38;;;;;;;12.40;3.03;;;;;;;;;;4331323;33;20023;-77
2022/10/07 12:18:11;;;;;;;16.87;3.45;;;;;;;;;;4344938;33;20117;-76
2022/10/07 12:20:44;;;;;;;14.93;3.35;;;;;;;;;;4339257;33;20040;-76
2022/10/07 12:23:21;;;;;;;10.00;2.95;;;;;;;;;;4342959;33;20048;-76
2022/10/07 12:25:55;;;;;;;13.73;3.53;;;;;;;;;;4343382;33;20112;-76
2022/10/07 12:28:40;;;;;;;17.58;3.37;;;;;;;;;;4343291;33;20057;-75
2022/10/07 12:31:31;;;;;;;16.75;4.37;;;;;;;;;;4343076;33;20044;-75
2022/10/07 12:34:17;;;;;;;18.12;3.60;;;;;;;;;;4343343;33;20066;-75
2022/10/07 12:37:06;;;;;;;;;;;;;;;;;;;;;
2022/10/07 12:39:35;;;;;;;18.27;4.05;;;;;;;;;;4344627;33;20381;-75
2022/10/07 12:42:03;;;;;;;14.90;3.67;;;;;;;;;;4344573;33;20361;-76
2022/10/07 12:45:04;;;;;;;19.95;4.32;;;;;;;;;;4330967;33;20040;-76
2022/10/07 12:50:47;;;;;;;11.12;3.12;;;;;;;;;;4344959;33;20038;-75
2022/10/07 12:53:12;;;;;;;19.35;4.68;;;;;;;;;;4331736;33;20028;-75
2022/10/07 12:55:40;;;;;;;13.48;3.33;;;;;;;;;;4336248;33;20066;-76
2022/10/07 13:01:28;;;;;;;16.55;3.75;;;;;;;;;;4332914;33;20103;-76
2022/10/07 13:04:13;;;;;;;15.88;3.45;;;;;;;;;;4330409;33;20082;-75
2022/10/07 13:06:48;;;;;;;14.73;3.87;;;;;;;;;;4334013;33;20054;-77
2022/10/07 13:09:14;;;;;;;14.95;4.45;;;;;;;;;;4345174;33;20067;-77
2022/10/07 13:12:01;;;;;;;15.73;4.12;;;;;;;;;;4347248;33;20035;-77
2022/10/07 13:14:35;;;;;;;17.20;4.07;;;;;;;;;;4333737;33;20027;-76
2022/10/07 13:17:06;;;;;;;12.77;3.70;;;;;;;;;;4347861;33;20509;-77
2022/10/07 13:20:10;;;;;;;11.70;4.57;;;;;;;;;;4347463;33;20112;-76
2022/10/07 13:22:35;;;;;;;23.60;4.10;;;;;;;;;;4344470;33;20090;-77
2022/10/07 13:25:13;;;;;;;;;;;;;;;;;;;;;
2022/10/07 13:31:01;;;;;;;20.37;4.37;;;;;;;;;;4347724;33;20437;-76
2022/10/07 13:33:32;;;;;;;16.70;3.65;;;;;;;;;;4347445;33;20032;-76
2022/10/07 13:36:31;;;;;;;19.58;4.37;;;;;;;;;;4347224;33;20085;-75
2022/10/07 13:39:31;;;;;;;;;;;;;;;;;;;;;
2022/10/07 13:42:10;;;;;;;17.62;4.45;;;;;;;;;;4347582;33;20048;-75
2022/10/07 13:44:41;;;;;;;13.02;4.10;;;;;;;;;;4347350;33;20311;-75
2022/10/07 13:47:16;;;;;;;19.75;4.50;;;;;;;;;;4347451;33;20039;-75
2022/10/07 13:49:45;;;;;;;19.65;4.30;;;;;;;;;;4347671;33;20062;-76
2022/10/07 13:55:48;;;;;;;20.05;4.20;;;;;;;;;;4347502;33;20057;-77
2022/10/07 14:01:08;;;;;;;17.80;4.18;;;;;;;;;;4346885;33;20378;-77
2022/10/07 14:03:34;;;;;;;16.25;3.60;;;;;;;;;;4346816;33;20066;-76
2022/10/07 14:09:39;;;;;;;13.65;3.10;;;;;;;;;;4301640;33;20102;-76
2022/10/07 14:12:56;;;;;;;13.80;3.05;;;;;;;;;;4277642;33;20091;-76
2022/10/07 14:15:07;;;;;;;14.57;4.40;;;;;;;;;;4297893;33;20119;-76
2022/10/07 14:17:46;;;;;;;16.00;3.83;;;;;;;;;;4301198;33;20025;-76
2022/10/07 14:20:49;;;;;;;13.85;3.40;;;;;;;;;;4325750;33;20073;-76
2022/10/07 14:23:27;;;;;;;15.25;3.20;;;;;;;;;;4323508;33;20417;-76
2022/10/07 14:25:54;;;;;;;17.15;3.75;;;;;;;;;;4332781;33;20040;-76
2022/10/07 14:28:19;;;;;;;13.23;2.55;;;;;;;;;;4346111;33;20069;-77
2022/10/07 14:37:09;;;;;;;17.62;3.67;;;;;;;;;;4285512;33;20640;-75
2022/10/07 14:39:51;;;;;;;12.07;3.50;;;;;;;;;;4343917;33;20449;-76
2022/10/07 14:42:21;;;;;;;15.93;3.85;;;;;;;;;;4344790;33;20471;-77
2022/10/07 14:45:03;;;;;;;10.40;3.00;;;;;;;;;;4352222;32;20085;-76
2022/10/07 14:47:50;;;;;;;11.93;2.97;;;;;;;;;;4351509;33;20135;-75
2022/10/07 14:50:18;;;;;;;15.93;4.57;;;;;;;;;;4341104;33;20051;-76
2022/10/07 14:52:48;;;;;;;21.30;3.42;;;;;;;;;;4348917;33;20071;-75
2022/10/07 14:55:24;;;;;;;18.15;3.55;;;;;;;;;;4349325;33;20469;-75
2022/10/07 14:57:49;;;;;;;16.27;3.60;;;;;;;;;;4349904;32;20491;-74
2022/10/07 15:00:19;;;;;;;24.52;5.20;;;;;;;;;;4346819;32;20047;-75
2022/10/07 15:02:50;;;;;;;18.05;3.20;;;;;;;;;;4349281;33;20079;-75
2022/10/07 15:05:16;;;;;;;9.45;3.20;;;;;;;;;;4355527;32;20088;-75
2022/10/07 15:07:41;;;;;;;17.08;3.30;;;;;;;;;;4347151;33;20418;-77
2022/10/07 15:10:25;;;;;;;12.35;3.35;;;;;;;;;;4350900;32;20031;-76
2022/10/07 15:12:51;;;;;;;15.23;3.87;;;;;;;;;;4351982;33;20044;-77
2022/10/07 15:15:17;;;;;;;14.27;3.17;;;;;;;;;;4347103;32;20426;-74
2022/10/07 15:17:43;;;;;;;12.07;3.33;;;;;;;;;;4354057;32;20659;-76
2022/10/07 15:26:13;;;;;;;18.45;7.53;;;;;;;;;;4310390;33;20041;-75
2022/10/07 15:35:03;;;;;;;17.33;4.37;;;;;;;;;;4327099;33;20450;-75
2022/10/07 15:37:44;;;;;;;15.90;3.53;;;;;;;;;;4337647;33;20074;-76
2022/10/07 15:42:57;;;;;;;14.02;4.85;;;;;;;;;;4345290;33;20062;-75
2022/10/07 15:45:24;;;;;;;19.02;6.25;;;;;;;;;;4331776;33;20114;-77
2022/10/07 15:47:51;;;;;;;22.80;6.78;;;;;;;;;;4345641;33;20036;-76
2022/10/07 15:53:24;;;;;;;17.37;4.32;;;;;;;;;;4299595;33;20467;-76
2022/10/07 15:55:50;;;;;;;19.30;4.28;;;;;;;;;;4302129;33;20091;-76
2022/10/07 15:58:36;;;;;;;14.57;3.17;;;;;;;;;;4320761;33;20036;-76
2022/10/07 16:01:09;;;;;;;16.95;4.43;;;;;;;;;;4330324;33;20032;-76
2022/10/07 16:03:39;;;;;;;12.85;3.12;;;;;;;;;;4334618;33;20027;-77
2022/10/07 16:06:06;;;;;;;14.68;3.30;;;;;;;;;;4331615;33;20505;-76
2022/10/07 16:08:34;;;;;;;14.95;3.85;;;;;;;;;;4346035;33;20104;-75
2022/10/07 16:11:04;;;;;;;20.12;4.55;;;;;;;;;;4345499;33;20028;-75
2022/10/07 16:13:29;;;;;;;18.02;3.85;;;;;;;;;;4345338;33;20093;-75
2022/10/07 16:15:56;;;;;;;18.87;4.15;;;;;;;;;;4345415;33;20027;-75
2022/10/07 16:18:21;;;;;;;22.83;4.40;;;;;;;;;;4345013;33;20027;-76
2022/10/07 16:20:47;;;;;;;13.77;3.62;;;;;;;;;;4345926;33;20057;-75
2022/10/07 16:23:12;;;;;;;14.70;3.70;;;;;;;;;;4346235;33;20104;-75
2022/10/07 16:25:54;;;;;;;12.98;4.05;;;;;;;;;;4345267;33;20085;-75
2022/10/07 16:31:04;;;;;;;13.45;3.60;;;;;;;;;;4345276;33;20074;-76
2022/10/07 16:33:51;;;;;;;12.55;3.47;;;;;;;;;;4341469;33;20035;-76
2022/10/07 16:36:17;;;;;;;17.42;3.78;;;;;;;;;;4334800;33;20031;-75
2022/10/07 16:39:00;;;;;;;;;;;;;;;;;;;;;
2022/10/07 16:41:33;;;;;;;20.23;3.67;;;;;;;;;;4346217;33;20032;-75
2022/10/07 16:43:58;;;;;;;13.15;3.72;;;;;;;;;;4331916;33;20027;-75
2022/10/07 16:46:24;;;;;;;19.90;5.00;;;;;;;;;;4348345;33;20119;-75
2022/10/07 16:48:51;;;;;;;14.50;4.62;;;;;;;;;;4348233;33;20020;-75
2022/10/07 16:54:11;;;;;;;10.27;3.55;;;;;;;;;;4348006;33;20081;-75
2022/10/07 16:59:25;;;;;;;17.15;4.87;;;;;;;;;;4319822;33;20062;-75
2022/10/07 17:01:51;;;;;;;11.77;3.25;;;;;;;;;;4347971;33;20028;-74